sensor_id;sensor_type;location;lat;lon;timestamp;P1;durP1;ratioP1;P2;durP2;ratioP2
30301;SDS011;17111;52.130;5.028;2023-07-24T00:02:25;5.50;;;3.35;;
30301;SDS011;17111;52.130;5.028;2023-07-24T00:04:52;5.90;;;3.20;;
30301;SDS011;17111;52.130;5.028;2023-07-24T00:07:18;4.55;;;3.35;;
30301;SDS011;17111;52.130;5.028;2023-07-24T00:09:45;4.32;;;3.08;;
30301;SDS011;17111;52.130;5.028;2023-07-24T00:12:11;4.00;;;2.88;;
30301;SDS011;17111;52.130;5.028;2023-07-24T00:14:38;3.80;;;3.10;;
30301;SDS011;17111;52.130;5.028;2023-07-24T00:17:05;4.05;;;2.88;;
30301;SDS011;17111;52.130;5.028;2023-07-24T00:19:31;5.15;;;3.40;;
30301;SDS011;17111;52.130;5.028;2023-07-24T00:21:58;3.67;;;2.92;;
30301;SDS011;17111;52.130;5.028;2023-07-24T00:24:25;4.57;;;3.00;;
30301;SDS011;17111;52.130;5.028;2023-07-24T00:26:51;3.15;;;2.60;;
30301;SDS011;17111;52.130;5.028;2023-07-24T00:29:18;3.85;;;2.80;;
30301;SDS011;17111;52.130;5.028;2023-07-24T00:31:44;4.10;;;3.10;;
30301;SDS011;17111;52.130;5.028;2023-07-24T00:34:11;3.65;;;2.65;;
30301;SDS011;17111;52.130;5.028;2023-07-24T00:36:37;3.25;;;2.53;;
30301;SDS011;17111;52.130;5.028;2023-07-24T00:39:04;4.38;;;3.03;;
30301;SDS011;17111;52.130;5.028;2023-07-24T00:41:31;4.93;;;2.88;;
30301;SDS011;17111;52.130;5.028;2023-07-24T00:43:58;5.07;;;3.60;;
30301;SDS011;17111;52.130;5.028;2023-07-24T00:46:24;4.25;;;3.25;;
30301;SDS011;17111;52.130;5.028;2023-07-24T00:48:51;3.95;;;2.80;;
30301;SDS011;17111;52.130;5.028;2023-07-24T00:51:20;4.63;;;2.58;;
30301;SDS011;17111;52.130;5.028;2023-07-24T00:53:48;4.38;;;2.95;;
30301;SDS011;17111;52.130;5.028;2023-07-24T00:56:15;3.72;;;2.70;;
30301;SDS011;17111;52.130;5.028;2023-07-24T00:58:42;2.95;;;2.58;;
30301;SDS011;17111;52.130;5.028;2023-07-24T01:01:08;3.88;;;2.80;;
30301;SDS011;17111;52.130;5.028;2023-07-24T01:03:37;4.53;;;3.05;;
30301;SDS011;17111;52.130;5.028;2023-07-24T01:06:04;4.57;;;3.05;;
30301;SDS011;17111;52.130;5.028;2023-07-24T01:08:31;4.20;;;2.78;;
30301;SDS011;17111;52.130;5.028;2023-07-24T01:11:00;5.28;;;3.00;;
30301;SDS011;17111;52.130;5.028;2023-07-24T01:13:40;3.20;;;2.42;;
30301;SDS011;17111;52.130;5.028;2023-07-24T01:16:16;3.28;;;2.40;;
30301;SDS011;17111;52.130;5.028;2023-07-24T01:18:45;6.45;;;2.50;;
30301;SDS011;17111;52.130;5.028;2023-07-24T01:21:15;3.67;;;2.45;;
30301;SDS011;17111;52.130;5.028;2023-07-24T01:23:54;4.43;;;3.28;;
30301;SDS011;17111;52.130;5.028;2023-07-24T01:26:25;4.53;;;2.65;;
30301;SDS011;17111;52.130;5.028;2023-07-24T01:28:52;3.15;;;2.30;;
30301;SDS011;17111;52.130;5.028;2023-07-24T01:31:19;5.05;;;2.90;;
30301;SDS011;17111;52.130;5.028;2023-07-24T01:33:45;3.47;;;2.35;;
30301;SDS011;17111;52.130;5.028;2023-07-24T01:36:12;3.30;;;2.50;;
30301;SDS011;17111;52.130;5.028;2023-07-24T01:38:40;3.60;;;2.47;;
30301;SDS011;17111;52.130;5.028;2023-07-24T01:41:08;3.05;;;2.47;;
30301;SDS011;17111;52.130;5.028;2023-07-24T01:43:35;4.07;;;2.58;;
30301;SDS011;17111;52.130;5.028;2023-07-24T01:46:03;3.58;;;2.42;;
30301;SDS011;17111;52.130;5.028;2023-07-24T01:48:30;3.80;;;2.55;;
30301;SDS011;17111;52.130;5.028;2023-07-24T01:50:57;4.03;;;2.70;;
30301;SDS011;17111;52.130;5.028;2023-07-24T01:53:23;4.00;;;2.45;;
30301;SDS011;17111;52.130;5.028;2023-07-24T01:55:51;4.22;;;3.03;;
30301;SDS011;17111;52.130;5.028;2023-07-24T01:58:17;3.10;;;2.20;;
30301;SDS011;17111;52.130;5.028;2023-07-24T02:00:44;3.17;;;2.30;;
30301;SDS011;17111;52.130;5.028;2023-07-24T02:03:11;5.35;;;2.65;;
30301;SDS011;17111;52.130;5.028;2023-07-24T02:05:37;3.85;;;2.28;;
30301;SDS011;17111;52.130;5.028;2023-07-24T02:08:04;3.38;;;2.40;;
30301;SDS011;17111;52.130;5.028;2023-07-24T02:10:31;3.33;;;2.20;;
30301;SDS011;17111;52.130;5.028;2023-07-24T02:12:57;4.43;;;2.88;;
30301;SDS011;17111;52.130;5.028;2023-07-24T02:15:24;2.88;;;1.95;;
30301;SDS011;17111;52.130;5.028;2023-07-24T02:17:50;3.65;;;2.55;;
30301;SDS011;17111;52.130;5.028;2023-07-24T02:20:17;3.13;;;2.33;;
30301;SDS011;17111;52.130;5.028;2023-07-24T02:22:44;3.75;;;2.60;;
30301;SDS011;17111;52.130;5.028;2023-07-24T02:25:10;2.67;;;2.40;;
30301;SDS011;17111;52.130;5.028;2023-07-24T02:27:37;3.60;;;2.05;;
30301;SDS011;17111;52.130;5.028;2023-07-24T02:30:03;4.00;;;2.45;;
30301;SDS011;17111;52.130;5.028;2023-07-24T02:32:30;2.83;;;2.17;;
30301;SDS011;17111;52.130;5.028;2023-07-24T02:34:58;2.60;;;2.08;;
30301;SDS011;17111;52.130;5.028;2023-07-24T02:37:25;3.85;;;2.50;;
30301;SDS011;17111;52.130;5.028;2023-07-24T02:39:51;2.85;;;2.17;;
30301;SDS011;17111;52.130;5.028;2023-07-24T02:42:19;3.03;;;2.38;;
30301;SDS011;17111;52.130;5.028;2023-07-24T02:44:45;2.90;;;2.15;;
30301;SDS011;17111;52.130;5.028;2023-07-24T02:47:12;3.28;;;2.45;;
30301;SDS011;17111;52.130;5.028;2023-07-24T02:49:39;3.45;;;2.10;;
30301;SDS011;17111;52.130;5.028;2023-07-24T02:52:05;3.55;;;2.42;;
30301;SDS011;17111;52.130;5.028;2023-07-24T02:54:32;2.60;;;2.00;;
30301;SDS011;17111;52.130;5.028;2023-07-24T02:56:58;2.60;;;2.10;;
30301;SDS011;17111;52.130;5.028;2023-07-24T02:59:25;3.42;;;2.20;;
30301;SDS011;17111;52.130;5.028;2023-07-24T03:01:52;2.72;;;2.20;;
30301;SDS011;17111;52.130;5.028;2023-07-24T03:04:18;5.20;;;2.20;;
30301;SDS011;17111;52.130;5.028;2023-07-24T03:06:46;2.53;;;1.90;;
30301;SDS011;17111;52.130;5.028;2023-07-24T03:09:12;2.47;;;2.00;;
30301;SDS011;17111;52.130;5.028;2023-07-24T03:11:39;3.22;;;2.40;;
30301;SDS011;17111;52.130;5.028;2023-07-24T03:14:05;2.03;;;1.75;;
30301;SDS011;17111;52.130;5.028;2023-07-24T03:16:32;2.97;;;2.20;;
30301;SDS011;17111;52.130;5.028;2023-07-24T03:18:59;3.38;;;2.10;;
30301;SDS011;17111;52.130;5.028;2023-07-24T03:21:25;2.53;;;1.88;;
30301;SDS011;17111;52.130;5.028;2023-07-24T03:23:52;2.90;;;2.10;;
30301;SDS011;17111;52.130;5.028;2023-07-24T03:26:19;2.78;;;2.22;;
30301;SDS011;17111;52.130;5.028;2023-07-24T03:28:45;3.10;;;2.30;;
30301;SDS011;17111;52.130;5.028;2023-07-24T03:31:12;3.15;;;2.38;;
30301;SDS011;17111;52.130;5.028;2023-07-24T03:33:39;2.88;;;2.17;;
30301;SDS011;17111;52.130;5.028;2023-07-24T03:36:05;3.17;;;2.10;;
30301;SDS011;17111;52.130;5.028;2023-07-24T03:38:32;3.65;;;2.35;;
30301;SDS011;17111;52.130;5.028;2023-07-24T03:40:58;2.63;;;1.85;;
30301;SDS011;17111;52.130;5.028;2023-07-24T03:43:25;3.17;;;2.20;;
30301;SDS011;17111;52.130;5.028;2023-07-24T03:45:51;5.53;;;2.20;;
30301;SDS011;17111;52.130;5.028;2023-07-24T03:48:18;2.80;;;2.28;;
30301;SDS011;17111;52.130;5.028;2023-07-24T03:50:45;3.25;;;1.98;;
30301;SDS011;17111;52.130;5.028;2023-07-24T03:53:11;3.28;;;2.17;;
30301;SDS011;17111;52.130;5.028;2023-07-24T03:55:38;3.88;;;2.35;;
30301;SDS011;17111;52.130;5.028;2023-07-24T03:58:04;3.15;;;2.25;;
30301;SDS011;17111;52.130;5.028;2023-07-24T04:00:31;3.03;;;2.40;;
30301;SDS011;17111;52.130;5.028;2023-07-24T04:02:58;4.50;;;2.60;;
30301;SDS011;17111;52.130;5.028;2023-07-24T04:05:24;3.15;;;2.38;;
30301;SDS011;17111;52.130;5.028;2023-07-24T04:07:52;4.63;;;2.60;;
30301;SDS011;17111;52.130;5.028;2023-07-24T04:10:19;4.00;;;2.50;;
30301;SDS011;17111;52.130;5.028;2023-07-24T04:12:46;5.78;;;2.78;;
30301;SDS011;17111;52.130;5.028;2023-07-24T04:15:13;5.18;;;3.42;;
30301;SDS011;17111;52.130;5.028;2023-07-24T04:17:39;6.63;;;4.53;;
30301;SDS011;17111;52.130;5.028;2023-07-24T04:20:08;6.13;;;3.63;;
30301;SDS011;17111;52.130;5.028;2023-07-24T04:22:36;8.65;;;4.38;;
30301;SDS011;17111;52.130;5.028;2023-07-24T04:25:02;7.10;;;4.47;;
30301;SDS011;17111;52.130;5.028;2023-07-24T04:27:29;7.80;;;4.70;;
30301;SDS011;17111;52.130;5.028;2023-07-24T04:29:56;7.43;;;4.55;;
30301;SDS011;17111;52.130;5.028;2023-07-24T04:32:23;10.77;;;5.70;;
30301;SDS011;17111;52.130;5.028;2023-07-24T04:34:49;9.70;;;4.90;;
30301;SDS011;17111;52.130;5.028;2023-07-24T04:37:16;8.00;;;4.38;;
30301;SDS011;17111;52.130;5.028;2023-07-24T04:39:42;7.32;;;4.72;;
30301;SDS011;17111;52.130;5.028;2023-07-24T04:42:09;10.10;;;4.97;;
30301;SDS011;17111;52.130;5.028;2023-07-24T04:44:36;7.50;;;4.95;;
30301;SDS011;17111;52.130;5.028;2023-07-24T04:47:02;7.25;;;4.75;;
30301;SDS011;17111;52.130;5.028;2023-07-24T04:49:29;7.70;;;4.30;;
30301;SDS011;17111;52.130;5.028;2023-07-24T04:51:56;6.80;;;4.18;;
30301;SDS011;17111;52.130;5.028;2023-07-24T04:54:23;7.68;;;4.93;;
30301;SDS011;17111;52.130;5.028;2023-07-24T04:56:50;6.25;;;3.97;;
30301;SDS011;17111;52.130;5.028;2023-07-24T04:59:16;6.85;;;4.55;;
30301;SDS011;17111;52.130;5.028;2023-07-24T05:01:43;7.68;;;4.45;;
30301;SDS011;17111;52.130;5.028;2023-07-24T05:04:10;7.05;;;4.07;;
30301;SDS011;17111;52.130;5.028;2023-07-24T05:06:36;6.00;;;3.92;;
30301;SDS011;17111;52.130;5.028;2023-07-24T05:09:04;4.55;;;3.47;;
30301;SDS011;17111;52.130;5.028;2023-07-24T05:11:31;5.95;;;3.92;;
30301;SDS011;17111;52.130;5.028;2023-07-24T05:13:57;7.65;;;4.25;;
30301;SDS011;17111;52.130;5.028;2023-07-24T05:16:24;7.22;;;3.72;;
30301;SDS011;17111;52.130;5.028;2023-07-24T05:18:51;6.80;;;4.25;;
30301;SDS011;17111;52.130;5.028;2023-07-24T05:21:17;6.78;;;3.50;;
30301;SDS011;17111;52.130;5.028;2023-07-24T05:23:44;4.85;;;3.63;;
30301;SDS011;17111;52.130;5.028;2023-07-24T05:26:10;6.72;;;4.05;;
30301;SDS011;17111;52.130;5.028;2023-07-24T05:28:37;6.03;;;4.00;;
30301;SDS011;17111;52.130;5.028;2023-07-24T05:31:04;7.82;;;3.50;;
30301;SDS011;17111;52.130;5.028;2023-07-24T05:33:32;5.72;;;3.88;;
30301;SDS011;17111;52.130;5.028;2023-07-24T05:35:59;5.50;;;3.70;;
30301;SDS011;17111;52.130;5.028;2023-07-24T05:38:26;5.85;;;3.85;;
30301;SDS011;17111;52.130;5.028;2023-07-24T05:40:54;6.97;;;3.63;;
30301;SDS011;17111;52.130;5.028;2023-07-24T05:43:24;6.88;;;3.90;;
30301;SDS011;17111;52.130;5.028;2023-07-24T05:45:51;5.57;;;3.78;;
30301;SDS011;17111;52.130;5.028;2023-07-24T05:48:18;9.05;;;3.92;;
30301;SDS011;17111;52.130;5.028;2023-07-24T05:50:45;5.30;;;3.40;;
30301;SDS011;17111;52.130;5.028;2023-07-24T05:53:11;12.70;;;4.00;;
30301;SDS011;17111;52.130;5.028;2023-07-24T05:55:38;5.95;;;4.00;;
30301;SDS011;17111;52.130;5.028;2023-07-24T05:58:05;5.55;;;3.38;;
30301;SDS011;17111;52.130;5.028;2023-07-24T06:00:32;6.13;;;3.67;;
30301;SDS011;17111;52.130;5.028;2023-07-24T06:02:58;6.47;;;3.80;;
30301;SDS011;17111;52.130;5.028;2023-07-24T06:05:25;5.72;;;3.42;;
30301;SDS011;17111;52.130;5.028;2023-07-24T06:07:51;6.72;;;3.78;;
30301;SDS011;17111;52.130;5.028;2023-07-24T06:10:18;7.68;;;2.97;;
30301;SDS011;17111;52.130;5.028;2023-07-24T06:12:45;6.35;;;3.50;;
30301;SDS011;17111;52.130;5.028;2023-07-24T06:15:11;6.63;;;3.40;;
30301;SDS011;17111;52.130;5.028;2023-07-24T06:17:38;5.25;;;3.35;;
30301;SDS011;17111;52.130;5.028;2023-07-24T06:20:05;7.93;;;4.03;;
30301;SDS011;17111;52.130;5.028;2023-07-24T06:22:33;8.68;;;4.28;;
30301;SDS011;17111;52.130;5.028;2023-07-24T06:24:59;5.35;;;3.40;;
30301;SDS011;17111;52.130;5.028;2023-07-24T06:27:26;6.70;;;3.28;;
30301;SDS011;17111;52.130;5.028;2023-07-24T06:29:52;7.07;;;3.35;;
30301;SDS011;17111;52.130;5.028;2023-07-24T06:32:30;5.13;;;3.30;;
30301;SDS011;17111;52.130;5.028;2023-07-24T06:34:56;6.57;;;4.20;;
30301;SDS011;17111;52.130;5.028;2023-07-24T06:37:23;7.15;;;3.15;;
30301;SDS011;17111;52.130;5.028;2023-07-24T06:39:50;7.60;;;2.88;;
30301;SDS011;17111;52.130;5.028;2023-07-24T06:42:16;5.75;;;2.58;;
30301;SDS011;17111;52.130;5.028;2023-07-24T06:44:43;5.47;;;2.95;;
30301;SDS011;17111;52.130;5.028;2023-07-24T06:47:10;7.32;;;3.17;;
30301;SDS011;17111;52.130;5.028;2023-07-24T06:49:36;6.95;;;3.22;;
30301;SDS011;17111;52.130;5.028;2023-07-24T06:52:03;6.90;;;3.40;;
30301;SDS011;17111;52.130;5.028;2023-07-24T06:54:30;6.75;;;3.58;;
30301;SDS011;17111;52.130;5.028;2023-07-24T06:56:56;7.00;;;3.38;;
30301;SDS011;17111;52.130;5.028;2023-07-24T06:59:23;5.60;;;3.00;;
30301;SDS011;17111;52.130;5.028;2023-07-24T07:01:50;4.30;;;2.92;;
30301;SDS011;17111;52.130;5.028;2023-07-24T07:04:16;4.25;;;2.85;;
30301;SDS011;17111;52.130;5.028;2023-07-24T07:06:43;9.50;;;3.10;;
30301;SDS011;17111;52.130;5.028;2023-07-24T07:09:10;4.05;;;2.70;;
30301;SDS011;17111;52.130;5.028;2023-07-24T07:11:37;9.00;;;2.72;;
30301;SDS011;17111;52.130;5.028;2023-07-24T07:14:05;6.95;;;3.08;;
30301;SDS011;17111;52.130;5.028;2023-07-24T07:16:35;7.60;;;2.90;;
30301;SDS011;17111;52.130;5.028;2023-07-24T07:19:01;4.85;;;2.83;;
30301;SDS011;17111;52.130;5.028;2023-07-24T07:21:28;9.98;;;3.47;;
30301;SDS011;17111;52.130;5.028;2023-07-24T07:23:55;4.93;;;2.83;;
30301;SDS011;17111;52.130;5.028;2023-07-24T07:26:22;6.50;;;2.92;;
30301;SDS011;17111;52.130;5.028;2023-07-24T07:28:49;7.70;;;3.10;;
30301;SDS011;17111;52.130;5.028;2023-07-24T07:31:16;4.40;;;2.95;;
30301;SDS011;17111;52.130;5.028;2023-07-24T07:33:43;8.20;;;3.40;;
30301;SDS011;17111;52.130;5.028;2023-07-24T07:36:09;10.60;;;3.50;;
30301;SDS011;17111;52.130;5.028;2023-07-24T07:38:36;5.97;;;3.20;;
30301;SDS011;17111;52.130;5.028;2023-07-24T07:41:05;4.60;;;2.63;;
30301;SDS011;17111;52.130;5.028;2023-07-24T07:43:32;5.57;;;2.75;;
30301;SDS011;17111;52.130;5.028;2023-07-24T07:45:59;4.90;;;2.88;;
30301;SDS011;17111;52.130;5.028;2023-07-24T07:48:25;6.78;;;2.80;;
30301;SDS011;17111;52.130;5.028;2023-07-24T07:50:52;7.22;;;2.85;;
30301;SDS011;17111;52.130;5.028;2023-07-24T07:53:18;5.32;;;2.80;;
30301;SDS011;17111;52.130;5.028;2023-07-24T07:55:45;6.82;;;3.25;;
30301;SDS011;17111;52.130;5.028;2023-07-24T07:58:12;6.70;;;3.17;;
30301;SDS011;17111;52.130;5.028;2023-07-24T08:00:38;5.50;;;2.85;;
30301;SDS011;17111;52.130;5.028;2023-07-24T08:03:06;6.95;;;3.08;;
30301;SDS011;17111;52.130;5.028;2023-07-24T08:05:33;6.78;;;3.03;;
30301;SDS011;17111;52.130;5.028;2023-07-24T08:07:59;9.77;;;3.83;;
30301;SDS011;17111;52.130;5.028;2023-07-24T08:10:26;5.95;;;3.35;;
30301;SDS011;17111;52.130;5.028;2023-07-24T08:12:52;6.88;;;3.20;;
30301;SDS011;17111;52.130;5.028;2023-07-24T08:15:19;7.10;;;3.30;;
30301;SDS011;17111;52.130;5.028;2023-07-24T08:17:46;4.35;;;2.80;;
30301;SDS011;17111;52.130;5.028;2023-07-24T08:20:12;7.15;;;3.20;;
30301;SDS011;17111;52.130;5.028;2023-07-24T08:22:39;7.00;;;3.17;;
30301;SDS011;17111;52.130;5.028;2023-07-24T08:25:06;10.57;;;3.50;;
30301;SDS011;17111;52.130;5.028;2023-07-24T08:27:33;7.55;;;3.15;;
30301;SDS011;17111;52.130;5.028;2023-07-24T08:30:10;10.48;;;4.35;;
30301;SDS011;17111;52.130;5.028;2023-07-24T08:32:39;8.95;;;3.30;;
30301;SDS011;17111;52.130;5.028;2023-07-24T08:35:06;8.18;;;3.65;;
30301;SDS011;17111;52.130;5.028;2023-07-24T08:37:32;10.13;;;4.00;;
30301;SDS011;17111;52.130;5.028;2023-07-24T08:39:59;8.75;;;3.17;;
30301;SDS011;17111;52.130;5.028;2023-07-24T08:42:26;8.80;;;3.40;;
30301;SDS011;17111;52.130;5.028;2023-07-24T08:44:54;7.25;;;3.17;;
30301;SDS011;17111;52.130;5.028;2023-07-24T08:47:21;6.10;;;3.35;;
30301;SDS011;17111;52.130;5.028;2023-07-24T08:49:49;9.80;;;3.97;;
30301;SDS011;17111;52.130;5.028;2023-07-24T08:52:17;5.85;;;3.50;;
30301;SDS011;17111;52.130;5.028;2023-07-24T08:55:01;10.07;;;3.20;;
30301;SDS011;17111;52.130;5.028;2023-07-24T08:57:29;6.28;;;3.65;;
30301;SDS011;17111;52.130;5.028;2023-07-24T08:59:56;7.93;;;3.55;;
30301;SDS011;17111;52.130;5.028;2023-07-24T09:02:24;5.88;;;3.70;;
30301;SDS011;17111;52.130;5.028;2023-07-24T09:04:50;5.90;;;3.35;;
30301;SDS011;17111;52.130;5.028;2023-07-24T09:07:17;11.48;;;3.95;;
30301;SDS011;17111;52.130;5.028;2023-07-24T09:09:46;11.10;;;3.63;;
30301;SDS011;17111;52.130;5.028;2023-07-24T09:12:15;11.95;;;3.88;;
30301;SDS011;17111;52.130;5.028;2023-07-24T09:14:42;8.07;;;4.03;;
30301;SDS011;17111;52.130;5.028;2023-07-24T09:17:11;7.53;;;4.00;;
30301;SDS011;17111;52.130;5.028;2023-07-24T09:19:38;9.20;;;3.97;;
30301;SDS011;17111;52.130;5.028;2023-07-24T09:22:11;12.98;;;4.30;;
30301;SDS011;17111;52.130;5.028;2023-07-24T09:27:18;10.15;;;4.88;;
30301;SDS011;17111;52.130;5.028;2023-07-24T09:29:45;8.88;;;4.07;;
30301;SDS011;17111;52.130;5.028;2023-07-24T09:32:22;11.65;;;4.85;;
30301;SDS011;17111;52.130;5.028;2023-07-24T09:34:52;5.13;;;3.65;;
30301;SDS011;17111;52.130;5.028;2023-07-24T09:37:24;8.90;;;4.13;;
30301;SDS011;17111;52.130;5.028;2023-07-24T09:39:51;12.93;;;4.00;;
30301;SDS011;17111;52.130;5.028;2023-07-24T09:42:26;9.77;;;4.47;;
30301;SDS011;17111;52.130;5.028;2023-07-24T09:45:10;11.68;;;4.22;;
30301;SDS011;17111;52.130;5.028;2023-07-24T09:47:36;8.77;;;4.20;;
30301;SDS011;17111;52.130;5.028;2023-07-24T09:50:08;6.03;;;3.72;;
30301;SDS011;17111;52.130;5.028;2023-07-24T09:52:35;8.30;;;3.92;;
30301;SDS011;17111;52.130;5.028;2023-07-24T09:55:13;7.60;;;3.97;;
30301;SDS011;17111;52.130;5.028;2023-07-24T09:57:55;10.95;;;4.57;;
30301;SDS011;17111;52.130;5.028;2023-07-24T10:00:25;12.25;;;3.95;;
30301;SDS011;17111;52.130;5.028;2023-07-24T10:02:51;9.13;;;3.80;;
30301;SDS011;17111;52.130;5.028;2023-07-24T10:05:19;8.93;;;4.18;;
30301;SDS011;17111;52.130;5.028;2023-07-24T10:07:46;9.85;;;4.40;;
30301;SDS011;17111;52.130;5.028;2023-07-24T10:10:13;9.52;;;3.67;;
30301;SDS011;17111;52.130;5.028;2023-07-24T10:12:41;9.75;;;4.00;;
30301;SDS011;17111;52.130;5.028;2023-07-24T10:15:08;10.98;;;4.10;;
30301;SDS011;17111;52.130;5.028;2023-07-24T10:17:39;7.15;;;3.70;;
30301;SDS011;17111;52.130;5.028;2023-07-24T10:20:08;8.75;;;4.10;;
30301;SDS011;17111;52.130;5.028;2023-07-24T10:22:40;10.38;;;4.07;;
30301;SDS011;17111;52.130;5.028;2023-07-24T10:25:08;8.85;;;3.92;;
30301;SDS011;17111;52.130;5.028;2023-07-24T10:27:41;8.73;;;3.67;;
30301;SDS011;17111;52.130;5.028;2023-07-24T10:30:10;9.57;;;3.85;;
30301;SDS011;17111;52.130;5.028;2023-07-24T10:33:03;9.93;;;4.35;;
30301;SDS011;17111;52.130;5.028;2023-07-24T10:35:41;8.23;;;4.13;;
30301;SDS011;17111;52.130;5.028;2023-07-24T10:38:10;8.00;;;4.07;;
30301;SDS011;17111;52.130;5.028;2023-07-24T10:40:38;9.65;;;4.03;;
30301;SDS011;17111;52.130;5.028;2023-07-24T10:48:13;7.47;;;4.00;;
30301;SDS011;17111;52.130;5.028;2023-07-24T10:50:41;8.77;;;3.65;;
30301;SDS011;17111;52.130;5.028;2023-07-24T10:53:12;8.80;;;4.03;;
30301;SDS011;17111;52.130;5.028;2023-07-24T10:55:44;7.70;;;4.33;;
30301;SDS011;17111;52.130;5.028;2023-07-24T10:58:13;9.00;;;4.10;;
30301;SDS011;17111;52.130;5.028;2023-07-24T11:00:44;7.20;;;4.05;;
30301;SDS011;17111;52.130;5.028;2023-07-24T11:03:11;8.32;;;3.60;;
30301;SDS011;17111;52.130;5.028;2023-07-24T11:05:39;8.57;;;4.03;;
30301;SDS011;17111;52.130;5.028;2023-07-24T11:08:14;7.97;;;3.60;;
30301;SDS011;17111;52.130;5.028;2023-07-24T11:10:45;7.38;;;3.75;;
30301;SDS011;17111;52.130;5.028;2023-07-24T11:13:15;10.00;;;4.05;;
30301;SDS011;17111;52.130;5.028;2023-07-24T11:15:43;8.23;;;4.03;;
30301;SDS011;17111;52.130;5.028;2023-07-24T11:18:10;7.60;;;3.42;;
30301;SDS011;17111;52.130;5.028;2023-07-24T11:20:50;7.55;;;3.67;;
30301;SDS011;17111;52.130;5.028;2023-07-24T11:23:18;10.25;;;3.80;;
30301;SDS011;17111;52.130;5.028;2023-07-24T11:25:45;5.70;;;3.33;;
30301;SDS011;17111;52.130;5.028;2023-07-24T11:28:13;8.45;;;3.40;;
30301;SDS011;17111;52.130;5.028;2023-07-24T11:30:41;10.38;;;3.97;;
30301;SDS011;17111;52.130;5.028;2023-07-24T11:33:10;8.75;;;3.55;;
30301;SDS011;17111;52.130;5.028;2023-07-24T11:35:39;6.70;;;3.13;;
30301;SDS011;17111;52.130;5.028;2023-07-24T11:38:09;5.63;;;3.20;;
30301;SDS011;17111;52.130;5.028;2023-07-24T11:40:41;6.05;;;3.00;;
30301;SDS011;17111;52.130;5.028;2023-07-24T11:43:16;10.20;;;3.80;;
30301;SDS011;17111;52.130;5.028;2023-07-24T11:45:44;6.25;;;2.85;;
30301;SDS011;17111;52.130;5.028;2023-07-24T11:48:14;8.75;;;3.33;;
30301;SDS011;17111;52.130;5.028;2023-07-24T11:50:42;6.38;;;2.95;;
30301;SDS011;17111;52.130;5.028;2023-07-24T11:53:23;7.80;;;2.60;;
30301;SDS011;17111;52.130;5.028;2023-07-24T11:55:57;7.18;;;3.38;;
30301;SDS011;17111;52.130;5.028;2023-07-24T11:58:30;5.28;;;2.92;;
30301;SDS011;17111;52.130;5.028;2023-07-24T12:00:57;7.13;;;3.20;;
30301;SDS011;17111;52.130;5.028;2023-07-24T12:03:24;5.07;;;2.88;;
30301;SDS011;17111;52.130;5.028;2023-07-24T12:05:52;6.57;;;2.95;;
30301;SDS011;17111;52.130;5.028;2023-07-24T12:08:20;6.53;;;2.70;;
30301;SDS011;17111;52.130;5.028;2023-07-24T12:10:50;5.88;;;2.38;;
30301;SDS011;17111;52.130;5.028;2023-07-24T12:13:16;4.93;;;2.67;;
30301;SDS011;17111;52.130;5.028;2023-07-24T12:15:46;4.43;;;2.83;;
30301;SDS011;17111;52.130;5.028;2023-07-24T12:18:14;6.05;;;3.10;;
30301;SDS011;17111;52.130;5.028;2023-07-24T12:20:41;5.93;;;2.90;;
30301;SDS011;17111;52.130;5.028;2023-07-24T12:23:07;7.28;;;3.22;;
30301;SDS011;17111;52.130;5.028;2023-07-24T12:25:34;4.57;;;3.10;;
30301;SDS011;17111;52.130;5.028;2023-07-24T12:28:01;4.65;;;2.60;;
30301;SDS011;17111;52.130;5.028;2023-07-24T12:30:27;6.15;;;2.90;;
30301;SDS011;17111;52.130;5.028;2023-07-24T12:32:54;5.97;;;2.70;;
30301;SDS011;17111;52.130;5.028;2023-07-24T12:35:21;5.32;;;2.55;;
30301;SDS011;17111;52.130;5.028;2023-07-24T12:37:47;4.00;;;2.20;;
30301;SDS011;17111;52.130;5.028;2023-07-24T12:40:14;5.75;;;2.58;;
30301;SDS011;17111;52.130;5.028;2023-07-24T12:42:40;4.65;;;2.45;;
30301;SDS011;17111;52.130;5.028;2023-07-24T12:45:07;11.32;;;2.90;;
30301;SDS011;17111;52.130;5.028;2023-07-24T12:47:34;4.18;;;2.42;;
30301;SDS011;17111;52.130;5.028;2023-07-24T12:50:01;3.83;;;2.08;;
30301;SDS011;17111;52.130;5.028;2023-07-24T12:52:30;4.00;;;2.38;;
30301;SDS011;17111;52.130;5.028;2023-07-24T12:54:57;6.13;;;2.58;;
30301;SDS011;17111;52.130;5.028;2023-07-24T12:57:27;5.93;;;1.70;;
30301;SDS011;17111;52.130;5.028;2023-07-24T12:59:54;3.40;;;1.90;;
30301;SDS011;17111;52.130;5.028;2023-07-24T13:02:20;3.10;;;2.00;;
30301;SDS011;17111;52.130;5.028;2023-07-24T13:04:47;4.82;;;1.90;;
30301;SDS011;17111;52.130;5.028;2023-07-24T13:07:14;4.00;;;2.10;;
30301;SDS011;17111;52.130;5.028;2023-07-24T13:09:40;2.70;;;1.60;;
30301;SDS011;17111;52.130;5.028;2023-07-24T13:12:08;2.25;;;1.98;;
30301;SDS011;17111;52.130;5.028;2023-07-24T13:14:35;3.58;;;1.98;;
30301;SDS011;17111;52.130;5.028;2023-07-24T13:17:05;4.03;;;2.15;;
30301;SDS011;17111;52.130;5.028;2023-07-24T13:19:32;1.90;;;1.60;;
30301;SDS011;17111;52.130;5.028;2023-07-24T13:21:58;3.03;;;1.70;;
30301;SDS011;17111;52.130;5.028;2023-07-24T13:24:25;2.15;;;1.42;;
30301;SDS011;17111;52.130;5.028;2023-07-24T13:26:52;3.38;;;1.60;;
30301;SDS011;17111;52.130;5.028;2023-07-24T13:29:18;4.55;;;1.60;;
30301;SDS011;17111;52.130;5.028;2023-07-24T13:31:45;2.58;;;1.35;;
30301;SDS011;17111;52.130;5.028;2023-07-24T13:34:12;3.42;;;1.77;;
30301;SDS011;17111;52.130;5.028;2023-07-24T13:36:38;5.43;;;1.70;;
30301;SDS011;17111;52.130;5.028;2023-07-24T13:39:05;2.25;;;1.42;;
30301;SDS011;17111;52.130;5.028;2023-07-24T13:41:33;3.63;;;1.65;;
30301;SDS011;17111;52.130;5.028;2023-07-24T13:44:00;3.78;;;1.55;;
30301;SDS011;17111;52.130;5.028;2023-07-24T13:46:26;5.85;;;1.80;;
30301;SDS011;17111;52.130;5.028;2023-07-24T13:48:53;3.67;;;1.83;;
30301;SDS011;17111;52.130;5.028;2023-07-24T13:51:20;3.78;;;1.58;;
30301;SDS011;17111;52.130;5.028;2023-07-24T13:53:46;4.82;;;1.50;;
30301;SDS011;17111;52.130;5.028;2023-07-24T13:56:15;6.82;;;1.83;;
30301;SDS011;17111;52.130;5.028;2023-07-24T13:58:42;3.03;;;1.38;;
30301;SDS011;17111;52.130;5.028;2023-07-24T14:01:08;5.68;;;1.27;;
30301;SDS011;17111;52.130;5.028;2023-07-24T14:03:36;3.40;;;1.40;;
30301;SDS011;17111;52.130;5.028;2023-07-24T14:06:03;2.67;;;1.33;;
30301;SDS011;17111;52.130;5.028;2023-07-24T14:08:29;3.78;;;1.42;;
30301;SDS011;17111;52.130;5.028;2023-07-24T14:10:56;5.03;;;1.35;;
30301;SDS011;17111;52.130;5.028;2023-07-24T14:13:22;4.47;;;1.35;;
30301;SDS011;17111;52.130;5.028;2023-07-24T14:15:49;5.65;;;1.50;;
30301;SDS011;17111;52.130;5.028;2023-07-24T14:18:16;5.35;;;1.52;;
30301;SDS011;17111;52.130;5.028;2023-07-24T14:20:42;2.65;;;1.40;;
30301;SDS011;17111;52.130;5.028;2023-07-24T14:23:09;3.65;;;1.40;;
30301;SDS011;17111;52.130;5.028;2023-07-24T14:25:36;3.42;;;1.40;;
30301;SDS011;17111;52.130;5.028;2023-07-24T14:28:02;2.97;;;1.00;;
30301;SDS011;17111;52.130;5.028;2023-07-24T14:30:29;4.97;;;1.98;;
30301;SDS011;17111;52.130;5.028;2023-07-24T14:32:56;4.03;;;1.63;;
30301;SDS011;17111;52.130;5.028;2023-07-24T14:35:22;5.85;;;1.50;;
30301;SDS011;17111;52.130;5.028;2023-07-24T14:37:49;7.35;;;1.42;;
30301;SDS011;17111;52.130;5.028;2023-07-24T14:40:16;3.67;;;1.30;;
30301;SDS011;17111;52.130;5.028;2023-07-24T14:42:42;6.32;;;1.52;;
30301;SDS011;17111;52.130;5.028;2023-07-24T14:45:09;5.20;;;1.40;;
30301;SDS011;17111;52.130;5.028;2023-07-24T14:47:36;45.78;;;16.75;;
30301;SDS011;17111;52.130;5.028;2023-07-24T14:50:03;22.27;;;6.63;;
30301;SDS011;17111;52.130;5.028;2023-07-24T14:52:29;30.90;;;8.40;;
30301;SDS011;17111;52.130;5.028;2023-07-24T14:54:56;16.50;;;6.32;;
30301;SDS011;17111;52.130;5.028;2023-07-24T14:57:23;12.75;;;4.03;;